createdAt,value
2023-01-06T00:02:53.927Z,1.70
2023-01-06T00:05:59.014Z,1.77
2023-01-06T00:09:02.334Z,2.22
2023-01-06T00:12:04.240Z,2.55
2023-01-06T00:15:05.756Z,2.25
2023-01-06T00:18:06.976Z,2.08
2023-01-06T00:21:08.875Z,2.17
2023-01-06T00:24:10.199Z,2.25
2023-01-06T00:27:11.542Z,2.30
2023-01-06T00:30:13.004Z,2.40
2023-01-06T00:33:14.329Z,2.45
2023-01-06T00:36:15.719Z,2.33
2023-01-06T00:39:16.967Z,2.15
2023-01-06T00:42:18.239Z,2.05
2023-01-06T00:45:19.500Z,2.05
2023-01-06T00:48:20.717Z,2.67
2023-01-06T00:51:21.950Z,2.47
2023-01-06T00:54:23.277Z,2.55
2023-01-06T00:57:24.605Z,2.45
2023-01-06T01:00:25.904Z,2.85
2023-01-06T01:03:27.176Z,2.70
2023-01-06T01:06:28.417Z,3.10
2023-01-06T01:09:30.276Z,3.20
2023-01-06T01:12:31.556Z,3.15
2023-01-06T01:15:32.852Z,4.30
2023-01-06T01:18:34.754Z,3.50
2023-01-06T01:21:36.123Z,3.75
2023-01-06T01:24:37.942Z,4.05
2023-01-06T01:27:39.189Z,4.22
2023-01-06T01:30:40.521Z,4.18
2023-01-06T01:33:42.257Z,3.50
2023-01-06T01:36:44.487Z,3.47
2023-01-06T01:39:45.766Z,3.30
2023-01-06T01:42:47.119Z,2.97
2023-01-06T01:45:50.364Z,2.75
2023-01-06T01:48:52.234Z,2.55
2023-01-06T01:51:54.824Z,2.58
2023-01-06T01:54:56.363Z,2.42
2023-01-06T01:58:20.882Z,2.47
2023-01-06T02:01:22.319Z,2.92
2023-01-06T02:04:24.887Z,2.67
2023-01-06T02:07:27.291Z,2.70
2023-01-06T02:10:29.074Z,2.80
2023-01-06T02:13:31.012Z,2.95
2023-01-06T02:16:32.257Z,2.75
2023-01-06T02:19:55.460Z,3.35
2023-01-06T02:23:15.489Z,2.92
2023-01-06T02:26:16.758Z,3.00
2023-01-06T02:29:30.410Z,2.95
2023-01-06T02:32:31.695Z,2.55
2023-01-06T02:35:35.904Z,3.13
2023-01-06T02:38:49.515Z,2.35
2023-01-06T02:41:50.732Z,2.20
2023-01-06T02:44:57.836Z,2.97
2023-01-06T02:47:59.075Z,2.30
2023-01-06T02:51:04.339Z,2.70
2023-01-06T02:54:05.572Z,2.97
2023-01-06T02:57:25.422Z,3.00
2023-01-06T03:00:34.709Z,2.47
2023-01-06T03:03:38.001Z,2.38
2023-01-06T03:06:44.691Z,3.53
2023-01-06T03:09:45.988Z,2.30
2023-01-06T03:12:56.438Z,2.92
2023-01-06T03:15:57.762Z,3.08
2023-01-06T03:18:59.080Z,3.15
2023-01-06T03:22:01.729Z,2.08
2023-01-06T03:25:02.995Z,2.35
2023-01-06T03:28:04.363Z,2.78
2023-01-06T03:31:11.858Z,2.78
2023-01-06T03:34:39.634Z,3.17
2023-01-06T03:37:55.819Z,2.40
2023-01-06T03:41:03.391Z,3.35
2023-01-06T03:44:11.505Z,2.50
2023-01-06T03:47:16.444Z,2.85
2023-01-06T03:50:31.516Z,2.58
2023-01-06T03:53:41.253Z,3.33
2023-01-06T03:56:48.078Z,2.85
2023-01-06T03:59:52.582Z,3.75
2023-01-06T04:05:55.236Z,3.25
2023-01-06T04:08:56.527Z,2.45
2023-01-06T04:12:16.304Z,3.10
2023-01-06T04:15:19.285Z,3.53
2023-01-06T04:18:20.529Z,3.15
2023-01-06T04:21:21.837Z,3.60
2023-01-06T04:24:23.151Z,3.55
2023-01-06T04:27:24.456Z,4.18
2023-01-06T04:30:25.713Z,3.03
2023-01-06T04:33:27.186Z,3.42
2023-01-06T04:36:28.482Z,3.28
2023-01-06T04:39:29.754Z,2.92
2023-01-06T04:42:51.005Z,3.13
2023-01-06T04:45:52.315Z,2.95
2023-01-06T04:48:53.660Z,2.78
2023-01-06T04:51:54.908Z,1.90
2023-01-06T04:54:56.201Z,2.25
2023-01-06T04:57:57.869Z,2.33
2023-01-06T05:01:03.782Z,1.95
2023-01-06T05:04:07.288Z,2.50
2023-01-06T05:07:08.625Z,2.95
2023-01-06T05:10:10.109Z,2.75
2023-01-06T05:13:11.369Z,2.58
2023-01-06T05:16:16.040Z,2.50
2023-01-06T05:19:17.290Z,2.80
2023-01-06T05:22:18.768Z,2.80
2023-01-06T05:25:20.057Z,3.25
2023-01-06T05:28:21.388Z,2.70
2023-01-06T05:31:23.349Z,3.20
2023-01-06T05:34:24.825Z,2.97
2023-01-06T05:37:26.112Z,3.08
2023-01-06T05:40:27.730Z,2.30
2023-01-06T05:43:29.435Z,2.53
2023-01-06T05:46:30.771Z,2.15
2023-01-06T05:49:32.016Z,2.58
2023-01-06T05:52:33.254Z,2.53
2023-01-06T05:55:34.719Z,2.72
2023-01-06T05:58:36.771Z,3.85
2023-01-06T06:01:38.146Z,2.38
2023-01-06T06:04:39.472Z,2.78
2023-01-06T06:07:40.924Z,3.45
2023-01-06T06:10:42.367Z,3.00
2023-01-06T06:13:50.824Z,2.85
2023-01-06T06:16:53.356Z,2.80
2023-01-06T06:19:54.637Z,3.22
2023-01-06T06:22:55.895Z,3.58
2023-01-06T06:25:57.612Z,4.03
2023-01-06T06:28:58.997Z,2.60
2023-01-06T06:32:00.514Z,3.55
2023-01-06T06:35:01.878Z,3.97
2023-01-06T06:38:03.235Z,3.78
2023-01-06T06:41:04.583Z,3.83
2023-01-06T06:44:05.829Z,2.85
2023-01-06T06:47:07.171Z,3.03
2023-01-06T06:50:10.201Z,1.30
2023-01-06T06:53:11.514Z,1.30
2023-01-06T06:56:13.630Z,1.00
2023-01-06T06:59:14.903Z,1.20
2023-01-06T07:02:16.430Z,1.00
2023-01-06T07:05:17.901Z,1.00
2023-01-06T07:08:19.238Z,0.82
2023-01-06T07:11:21.153Z,1.08
2023-01-06T07:14:22.413Z,1.35
2023-01-06T07:17:29.668Z,1.33
2023-01-06T07:20:31.698Z,0.55
2023-01-06T07:23:33.099Z,1.20
2023-01-06T07:26:34.376Z,1.38
2023-01-06T07:29:35.753Z,0.60
2023-01-06T07:32:37.023Z,0.80
2023-01-06T07:35:38.288Z,1.00
2023-01-06T07:38:39.526Z,1.20
2023-01-06T07:41:40.756Z,0.55
2023-01-06T07:44:42.035Z,1.20
2023-01-06T07:47:43.474Z,0.80
2023-01-06T07:50:44.838Z,0.75
2023-01-06T07:53:46.078Z,1.20
2023-01-06T07:56:47.369Z,1.52
2023-01-06T07:59:48.646Z,0.55
2023-01-06T08:02:50.013Z,0.90
2023-01-06T08:05:51.333Z,1.23
2023-01-06T08:08:52.682Z,1.58
2023-01-06T08:11:54.026Z,1.13
2023-01-06T08:14:55.346Z,0.90
2023-01-06T08:17:56.653Z,2.22
2023-01-06T08:21:05.120Z,1.10
2023-01-06T08:24:06.548Z,1.15
2023-01-06T08:27:07.864Z,1.20
2023-01-06T08:30:10.123Z,1.48
2023-01-06T08:33:19.036Z,0.95
2023-01-06T08:36:23.636Z,0.98
2023-01-06T08:39:24.924Z,2.00
2023-01-06T08:42:26.300Z,2.17
2023-01-06T08:45:27.590Z,1.33
2023-01-06T08:48:29.282Z,1.42
2023-01-06T08:51:30.708Z,1.50
2023-01-06T08:54:32.006Z,1.98
2023-01-06T08:57:33.640Z,3.00
2023-01-06T09:00:35.557Z,4.78
2023-01-06T09:03:36.858Z,2.80
2023-01-06T09:06:38.521Z,1.63
2023-01-06T09:09:39.809Z,1.00
2023-01-06T09:12:41.681Z,1.85
2023-01-06T09:15:43.335Z,2.78
2023-01-06T09:18:49.428Z,2.58
2023-01-06T09:21:50.710Z,1.88
2023-01-06T09:24:52.047Z,1.42
2023-01-06T09:27:53.344Z,1.40
2023-01-06T09:30:54.695Z,0.50
2023-01-06T09:33:56.198Z,0.70
2023-01-06T09:36:57.502Z,1.63
2023-01-06T09:39:59.194Z,1.08
2023-01-06T09:43:08.254Z,0.68
2023-01-06T09:46:11.447Z,1.38
2023-01-06T09:49:12.756Z,0.40
2023-01-06T09:52:18.561Z,1.17
2023-01-06T09:55:40.061Z,0.90
2023-01-06T09:58:52.764Z,0.50
2023-01-06T10:01:56.114Z,0.60
2023-01-06T10:04:57.461Z,1.20
2023-01-06T10:08:03.443Z,1.58
2023-01-06T10:11:04.713Z,0.90
2023-01-06T10:14:05.969Z,0.68
2023-01-06T10:17:07.208Z,1.40
2023-01-06T10:20:27.166Z,0.90
2023-01-06T10:23:42.323Z,1.10
2023-01-06T10:26:44.703Z,1.38
2023-01-06T10:29:47.693Z,0.90
2023-01-06T10:32:50.823Z,1.02
2023-01-06T10:35:52.660Z,1.38
2023-01-06T10:38:54.681Z,1.05
2023-01-06T10:42:30.999Z,0.90
2023-01-06T10:45:34.018Z,0.75
2023-01-06T10:48:36.065Z,1.58
2023-01-06T10:51:42.395Z,0.82
2023-01-06T10:54:44.220Z,1.40
2023-01-06T10:57:45.907Z,0.98
2023-01-06T11:00:56.136Z,1.60
2023-01-06T11:04:08.345Z,0.80
2023-01-06T11:07:14.643Z,1.00
2023-01-06T11:10:39.512Z,1.50
2023-01-06T11:13:41.476Z,1.67
2023-01-06T11:16:43.659Z,0.95
2023-01-06T11:19:45.810Z,0.82
2023-01-06T11:22:48.356Z,0.85
2023-01-06T11:26:00.209Z,0.73
2023-01-06T11:29:16.523Z,0.77
2023-01-06T11:32:17.820Z,1.17
2023-01-06T11:35:20.718Z,1.05
2023-01-06T11:38:22.321Z,1.40
2023-01-06T11:41:25.906Z,1.20
2023-01-06T11:44:38.377Z,0.80
2023-01-06T11:47:39.645Z,0.85
2023-01-06T11:50:40.960Z,1.00
2023-01-06T11:53:56.363Z,0.80
2023-01-06T11:56:58.742Z,0.95
2023-01-06T12:00:05.768Z,1.50
2023-01-06T12:03:14.625Z,0.70
2023-01-06T12:06:20.632Z,0.70
2023-01-06T12:09:28.708Z,1.30
2023-01-06T12:12:30.068Z,0.80
2023-01-06T12:15:33.004Z,0.88
2023-01-06T12:18:36.123Z,0.65
2023-01-06T12:21:37.758Z,0.65
2023-01-06T12:24:39.401Z,0.60
2023-01-06T12:27:44.046Z,0.70
2023-01-06T12:30:48.409Z,0.60
2023-01-06T12:34:00.526Z,0.60
2023-01-06T12:37:20.634Z,0.50
2023-01-06T12:40:34.994Z,0.70
2023-01-06T12:43:38.844Z,0.90
2023-01-06T12:46:46.268Z,0.60
2023-01-06T12:49:53.688Z,0.70
2023-01-06T12:53:01.248Z,1.60
2023-01-06T12:56:18.739Z,1.00
2023-01-06T12:59:26.256Z,0.63
2023-01-06T13:02:43.286Z,1.30
2023-01-06T13:05:54.731Z,0.77
2023-01-06T13:09:00.588Z,0.60
2023-01-06T13:12:07.863Z,1.08
2023-01-06T13:15:28.603Z,0.70
2023-01-06T13:18:49.452Z,0.50
2023-01-06T13:21:53.320Z,0.50
2023-01-06T13:25:12.075Z,0.90
2023-01-06T13:28:13.315Z,0.90
2023-01-06T13:31:25.916Z,0.60
2023-01-06T13:34:30.250Z,0.60
2023-01-06T13:40:36.492Z,1.10
2023-01-06T13:43:37.907Z,0.70
2023-01-06T13:46:39.439Z,0.73
2023-01-06T13:49:41.477Z,0.43
2023-01-06T13:52:43.065Z,1.38
2023-01-06T13:55:44.487Z,0.70
2023-01-06T13:58:46.457Z,1.23
2023-01-06T14:01:47.921Z,0.60
2023-01-06T14:04:49.409Z,0.70
2023-01-06T14:08:02.803Z,0.60
2023-01-06T14:11:06.099Z,0.63
2023-01-06T14:14:29.431Z,0.55
2023-01-06T14:17:36.226Z,1.15
2023-01-06T14:20:38.505Z,1.10
2023-01-06T14:23:49.319Z,0.70
2023-01-06T14:26:54.046Z,0.70
2023-01-06T14:30:03.689Z,0.70
2023-01-06T14:33:08.147Z,0.60
2023-01-06T14:36:12.659Z,0.70
2023-01-06T14:39:20.447Z,1.15
2023-01-06T14:42:32.140Z,1.17
2023-01-06T14:45:38.385Z,1.00
2023-01-06T14:48:43.049Z,1.15
2023-01-06T14:51:44.563Z,0.85
2023-01-06T14:54:47.348Z,1.55
2023-01-06T14:57:51.258Z,1.10
2023-01-06T15:00:53.608Z,1.20
2023-01-06T15:03:59.450Z,0.90
2023-01-06T15:07:02.587Z,1.00
2023-01-06T15:10:13.446Z,1.00
2023-01-06T15:13:22.414Z,1.05
2023-01-06T15:16:31.219Z,1.00
2023-01-06T15:19:33.146Z,1.10
2023-01-06T15:22:34.395Z,1.20
2023-01-06T15:25:37.595Z,1.30
2023-01-06T15:28:38.977Z,1.08
2023-01-06T15:31:40.496Z,1.10
2023-01-06T15:34:47.248Z,1.13
2023-01-06T15:37:51.985Z,3.17
2023-01-06T15:40:53.610Z,2.15
2023-01-06T15:43:55.869Z,2.38
2023-01-06T15:47:12.379Z,2.30
2023-01-06T15:50:18.373Z,1.13
2023-01-06T15:53:21.390Z,1.80
2023-01-06T15:56:23.612Z,1.70
2023-01-06T15:59:25.085Z,2.45
2023-01-06T16:02:28.749Z,1.70
2023-01-06T16:05:33.071Z,1.20
2023-01-06T16:08:34.500Z,1.13
2023-01-06T16:11:57.258Z,1.20
2023-01-06T16:14:58.607Z,2.22
2023-01-06T16:17:59.855Z,1.05
2023-01-06T16:21:13.896Z,1.05
2023-01-06T16:24:20.224Z,1.10
2023-01-06T16:27:25.320Z,0.90
2023-01-06T16:30:36.362Z,1.40
2023-01-06T16:33:39.618Z,1.50
2023-01-06T16:36:40.944Z,1.20
2023-01-06T16:39:43.768Z,1.85
2023-01-06T16:42:46.592Z,1.15
2023-01-06T16:45:50.919Z,1.20
2023-01-06T16:48:53.184Z,2.15
2023-01-06T16:51:54.709Z,2.60
2023-01-06T16:54:56.874Z,1.20
2023-01-06T16:57:59.060Z,1.10
2023-01-06T17:01:08.189Z,1.52
2023-01-06T17:04:11.116Z,1.75
2023-01-06T17:07:15.533Z,0.88
2023-01-06T17:10:19.445Z,1.20
2023-01-06T17:13:36.260Z,1.27
2023-01-06T17:16:39.213Z,1.52
2023-01-06T17:19:41.532Z,0.65
2023-01-06T17:22:43.336Z,0.60
2023-01-06T17:25:44.969Z,1.85
2023-01-06T17:28:46.934Z,0.93
2023-01-06T17:31:52.783Z,2.50
2023-01-06T17:34:54.134Z,1.17
2023-01-06T17:37:58.883Z,1.00
2023-01-06T17:41:00.257Z,1.13
2023-01-06T17:44:01.564Z,1.00
2023-01-06T17:47:06.101Z,0.82
2023-01-06T17:50:24.495Z,1.00
2023-01-06T17:53:44.608Z,0.80
2023-01-06T17:56:46.378Z,0.88
2023-01-06T17:59:49.485Z,1.23
2023-01-06T18:02:53.151Z,1.50
2023-01-06T18:06:04.731Z,1.13
2023-01-06T18:09:06.012Z,1.30
2023-01-06T18:12:12.815Z,2.10
2023-01-06T18:15:26.352Z,1.52
2023-01-06T18:18:31.792Z,1.10
2023-01-06T18:21:36.006Z,0.85
2023-01-06T18:24:38.740Z,1.00
2023-01-06T18:27:40.230Z,1.73
2023-01-06T18:30:41.648Z,2.60
2023-01-06T18:33:42.903Z,2.00
2023-01-06T18:36:44.987Z,2.03
2023-01-06T18:39:47.569Z,1.42
2023-01-06T18:42:49.539Z,1.50
2023-01-06T18:45:51.875Z,1.70
2023-01-06T18:48:54.595Z,2.15
2023-01-06T18:51:55.910Z,1.65
2023-01-06T18:54:58.234Z,1.52
2023-01-06T18:58:07.939Z,1.15
2023-01-06T19:01:12.460Z,1.55
2023-01-06T19:04:28.812Z,1.98
2023-01-06T19:07:30.448Z,1.30
2023-01-06T19:10:31.755Z,1.42
2023-01-06T19:13:33.092Z,1.58
2023-01-06T19:16:36.942Z,1.30
2023-01-06T19:19:39.636Z,1.30
2023-01-06T19:22:41.131Z,1.80
2023-01-06T19:25:46.876Z,1.25
2023-01-06T19:28:53.751Z,1.70
2023-01-06T19:31:56.625Z,1.33
2023-01-06T19:34:58.107Z,1.30
2023-01-06T19:38:01.152Z,1.17
2023-01-06T19:41:04.741Z,1.70
2023-01-06T19:44:06.054Z,2.08
2023-01-06T19:47:12.844Z,1.70
2023-01-06T19:50:19.040Z,1.30
2023-01-06T19:53:31.678Z,1.00
2023-01-06T19:56:34.713Z,2.22
2023-01-06T19:59:37.352Z,1.83
2023-01-06T20:02:42.604Z,2.95
2023-01-06T20:05:43.902Z,1.50
2023-01-06T20:08:45.466Z,0.90
2023-01-06T20:11:47.625Z,1.60
2023-01-06T20:14:49.003Z,1.40
2023-01-06T20:17:50.297Z,1.27
2023-01-06T20:20:51.549Z,1.50
2023-01-06T20:23:52.914Z,0.98
2023-01-06T20:26:54.267Z,1.00
2023-01-06T20:29:55.641Z,1.35
2023-01-06T20:32:56.930Z,1.20
2023-01-06T20:35:58.210Z,1.13
2023-01-06T20:38:59.643Z,1.60
2023-01-06T20:42:03.624Z,1.20
2023-01-06T20:45:05.205Z,1.00
2023-01-06T20:48:06.785Z,1.25
2023-01-06T20:51:08.726Z,1.50
2023-01-06T20:54:10.239Z,1.17
2023-01-06T20:57:11.540Z,1.02
2023-01-06T21:00:13.306Z,0.70
2023-01-06T21:03:14.626Z,1.00
2023-01-06T21:06:16.077Z,1.05
2023-01-06T21:09:17.375Z,0.88
2023-01-06T21:12:18.715Z,1.70
2023-01-06T21:15:20.093Z,1.85
2023-01-06T21:18:21.394Z,1.35
2023-01-06T21:21:23.108Z,0.95
2023-01-06T21:24:25.271Z,1.75
2023-01-06T21:27:26.585Z,2.05
2023-01-06T21:30:29.018Z,1.10
2023-01-06T21:33:30.456Z,2.03
2023-01-06T21:36:31.792Z,2.67
2023-01-06T21:39:33.098Z,2.17
2023-01-06T21:42:53.130Z,1.60
2023-01-06T21:45:54.441Z,1.30
2023-01-06T21:48:55.710Z,1.27
2023-01-06T21:51:57.742Z,1.90
2023-01-06T21:54:59.168Z,1.10
2023-01-06T21:58:00.908Z,0.90
2023-01-06T22:01:02.306Z,0.90
2023-01-06T22:04:03.804Z,1.00
2023-01-06T22:07:06.336Z,1.67
2023-01-06T22:10:08.301Z,2.00
2023-01-06T22:13:10.954Z,2.58
2023-01-06T22:16:12.969Z,2.50
2023-01-06T22:19:15.035Z,3.53
2023-01-06T22:22:16.348Z,1.75
2023-01-06T22:25:17.678Z,3.00
2023-01-06T22:28:18.928Z,3.00
2023-01-06T22:31:20.224Z,2.72
2023-01-06T22:34:21.517Z,2.90
2023-01-06T22:37:22.855Z,2.50
2023-01-06T22:40:24.139Z,2.42
2023-01-06T22:43:25.471Z,2.45
2023-01-06T22:46:27.360Z,1.65
2023-01-06T22:49:28.737Z,2.50
2023-01-06T22:52:30.046Z,1.90
2023-01-06T22:55:31.273Z,1.42
2023-01-06T22:58:33.274Z,1.00
2023-01-06T23:01:34.635Z,1.88
2023-01-06T23:04:35.947Z,1.45
2023-01-06T23:07:38.187Z,1.17
2023-01-06T23:10:39.435Z,2.13
2023-01-06T23:13:41.384Z,1.40
2023-01-06T23:16:45.113Z,1.65
2023-01-06T23:19:46.484Z,1.25
2023-01-06T23:22:47.774Z,1.25
2023-01-06T23:25:49.063Z,2.08
2023-01-06T23:28:51.386Z,1.40
2023-01-06T23:31:52.693Z,1.15
2023-01-06T23:34:53.933Z,2.00
2023-01-06T23:37:55.226Z,1.85
2023-01-06T23:41:03.684Z,1.90
2023-01-06T23:44:05.467Z,1.23
2023-01-06T23:47:08.237Z,1.20
2023-01-06T23:50:09.692Z,2.00
2023-01-06T23:53:10.978Z,1.33
2023-01-06T23:56:13.288Z,1.17
2023-01-06T23:59:14.591Z,1.60
